LEGR/GRX METAR and TAF weather

Enter ICAO airport designator
Station Type Date Time Source
LEGR METAR 2022/01/29 10:00 UTC NOAA

LEGR 291000Z VRB02KT CAVOK 08/00 Q1031


Station Type Date Time Source
LEGR Decoded METAR 2022/01/29 10:00 UTC NOAA

Granada / Aeropuerto, Spain (LEGR) 37-11N 003-47W 570M
Jan 29, 2022 - 05:00 AM EST / 2022.01.29 1000 UTC
Wind: Variable at 2 MPH (2 KT):0
Visibility: greater than 7 mile(s):0
Temperature: 46 F (8 C)
Dew Point: 32 F (0 C)
Relative Humidity: 56%
Pressure (altimeter): 30.45 in. Hg (1031 hPa)
ob: LEGR 291000Z VRB02KT CAVOK 08/00 Q1031
cycle: 10

Station Type Date Time Source
LEGR TAF 2022/01/29 06:27 UTC NOAA

TAF LEGR 290500Z 2906/3006 VRB02KT CAVOK TX20/2915Z TN03/2906Z PROB40
TEMPO 2915/2921 15010KT

Example: see airport list